sensor_id;sensor_type;location;lat;lon;timestamp;pressure;altitude;pressure_sealevel;temperature;humidity
68965;BME280;56017;48.680;8.998;2023-05-01T00:00:25;96650;;;9.8;75.5
68965;BME280;56017;48.680;8.998;2023-05-01T00:02:48;96650;;;9.9;75.5
68965;BME280;56017;48.680;8.998;2023-05-01T00:05:19;96650;;;9.9;75.5
68965;BME280;56017;48.680;8.998;2023-05-01T00:07:50;96640;;;9.9;75.5
68965;BME280;56017;48.680;8.998;2023-05-01T00:10:21;96640;;;10;75.5
68965;BME280;56017;48.680;8.998;2023-05-01T00:12:45;96640;;;10;75.5
68965;BME280;56017;48.680;8.998;2023-05-01T00:15:29;96640;;;10.1;75.5
68965;BME280;56017;48.680;8.998;2023-05-01T00:18:06;96640;;;10.2;75.5
68965;BME280;56017;48.680;8.998;2023-05-01T00:20:29;96630;;;10.2;75
68965;BME280;56017;48.680;8.998;2023-05-01T00:22:54;96630;;;10.3;75
68965;BME280;56017;48.680;8.998;2023-05-01T00:25:25;96620;;;10.3;75
68965;BME280;56017;48.680;8.998;2023-05-01T00:27:56;96620;;;10.4;75
68965;BME280;56017;48.680;8.998;2023-05-01T00:30:27;96620;;;10.4;75
68965;BME280;56017;48.680;8.998;2023-05-01T00:32:58;96620;;;10.4;75
68965;BME280;56017;48.680;8.998;2023-05-01T00:35:29;96620;;;10.3;75
68965;BME280;56017;48.680;8.998;2023-05-01T00:38:00;96620;;;10.3;75
68965;BME280;56017;48.680;8.998;2023-05-01T00:43:01;96610;;;10.2;75.5
68965;BME280;56017;48.680;8.998;2023-05-01T00:45:40;96610;;;10.3;75
68965;BME280;56017;48.680;8.998;2023-05-01T00:48:04;96610;;;10.4;75
68965;BME280;56017;48.680;8.998;2023-05-01T00:50:34;96600;;;10.5;75
68965;BME280;56017;48.680;8.998;2023-05-01T00:52:59;96600;;;10.5;75
68965;BME280;56017;48.680;8.998;2023-05-01T00:58:00;96590;;;10.5;75
68965;BME280;56017;48.680;8.998;2023-05-01T01:00:31;96590;;;10.5;75
68965;BME280;56017;48.680;8.998;2023-05-01T01:03:02;96580;;;10.5;75
68965;BME280;56017;48.680;8.998;2023-05-01T01:05:34;96580;;;10.5;75
68965;BME280;56017;48.680;8.998;2023-05-01T01:08:08;96580;;;10.5;75
68965;BME280;56017;48.680;8.998;2023-05-01T01:13:45;96570;;;10.8;75
68965;BME280;56017;48.680;8.998;2023-05-01T01:16:01;96570;;;10.8;74.5
68965;BME280;56017;48.680;8.998;2023-05-01T01:18:18;96570;;;10.8;74.5
68965;BME280;56017;48.680;8.998;2023-05-01T01:20:54;96560;;;10.7;75
68965;BME280;56017;48.680;8.998;2023-05-01T01:33:16;96550;;;10.8;75
68965;BME280;56017;48.680;8.998;2023-05-01T01:38:15;96550;;;10.9;74.5
68965;BME280;56017;48.680;8.998;2023-05-01T01:40:48;96550;;;10.8;75
68965;BME280;56017;48.680;8.998;2023-05-01T01:48:24;96550;;;10.8;75
68965;BME280;56017;48.680;8.998;2023-05-01T01:50:53;96550;;;10.7;75
68965;BME280;56017;48.680;8.998;2023-05-01T01:53:24;96550;;;10.6;75.5
68965;BME280;56017;48.680;8.998;2023-05-01T01:56:02;96550;;;10.4;76
68965;BME280;56017;48.680;8.998;2023-05-01T01:58:26;96550;;;10.5;76
68965;BME280;56017;48.680;8.998;2023-05-01T02:03:34;96550;;;10.5;75.5
68965;BME280;56017;48.680;8.998;2023-05-01T02:06:12;96540;;;10.5;75.5
68965;BME280;56017;48.680;8.998;2023-05-01T02:08:34;96540;;;10.5;75.5
68965;BME280;56017;48.680;8.998;2023-05-01T02:10:59;96540;;;10.6;75
68965;BME280;56017;48.680;8.998;2023-05-01T02:13:30;96540;;;10.5;75.5
68965;BME280;56017;48.680;8.998;2023-05-01T02:16:01;96540;;;10.4;76
68965;BME280;56017;48.680;8.998;2023-05-01T02:23:26;96530;;;10.4;75.5
68965;BME280;56017;48.680;8.998;2023-05-01T02:28:28;96530;;;10.6;75.5
68965;BME280;56017;48.680;8.998;2023-05-01T02:33:30;96520;;;10.7;75
68965;BME280;56017;48.680;8.998;2023-05-01T02:38:31;96520;;;10.6;75
68965;BME280;56017;48.680;8.998;2023-05-01T02:41:15;96520;;;10.7;75
68965;BME280;56017;48.680;8.998;2023-05-01T02:43:45;96520;;;10.7;75
68965;BME280;56017;48.680;8.998;2023-05-01T02:48:39;96510;;;10.7;75
68965;BME280;56017;48.680;8.998;2023-05-01T02:51:10;96510;;;10.7;75
68965;BME280;56017;48.680;8.998;2023-05-01T02:53:41;96510;;;10.7;75
68965;BME280;56017;48.680;8.998;2023-05-01T02:56:12;96510;;;10.7;74.5
68965;BME280;56017;48.680;8.998;2023-05-01T02:58:43;96510;;;10.8;74.5
68965;BME280;56017;48.680;8.998;2023-05-01T03:01:20;96510;;;10.7;75
68965;BME280;56017;48.680;8.998;2023-05-01T03:03:50;96500;;;10.8;75
68965;BME280;56017;48.680;8.998;2023-05-01T03:06:20;96500;;;10.7;75
68965;BME280;56017;48.680;8.998;2023-05-01T03:08:45;96500;;;10.7;74.5
68965;BME280;56017;48.680;8.998;2023-05-01T03:13:47;96490;;;10.8;74.5
68965;BME280;56017;48.680;8.998;2023-05-01T03:18:49;96490;;;10.7;74.5
68965;BME280;56017;48.680;8.998;2023-05-01T03:23:51;96490;;;10.8;75
68965;BME280;56017;48.680;8.998;2023-05-01T03:28:53;96490;;;10.9;74.5
68965;BME280;56017;48.680;8.998;2023-05-01T03:31:23;96490;;;10.8;74.5
68965;BME280;56017;48.680;8.998;2023-05-01T03:33:55;96480;;;10.8;74.5
68965;BME280;56017;48.680;8.998;2023-05-01T03:36:25;96480;;;10.8;74.5
68965;BME280;56017;48.680;8.998;2023-05-01T03:38:57;96480;;;10.8;74.5
68965;BME280;56017;48.680;8.998;2023-05-01T03:46:29;96470;;;10.9;74.5
68965;BME280;56017;48.680;8.998;2023-05-01T03:49:01;96470;;;10.9;74.5
68965;BME280;56017;48.680;8.998;2023-05-01T03:54:03;96470;;;10.8;75.5
68965;BME280;56017;48.680;8.998;2023-05-01T03:59:04;96460;;;10.7;75
68965;BME280;56017;48.680;8.998;2023-05-01T04:01:35;96470;;;10.7;75
68965;BME280;56017;48.680;8.998;2023-05-01T04:04:06;96470;;;10.8;75
68965;BME280;56017;48.680;8.998;2023-05-01T04:09:08;96470;;;10.8;75
68965;BME280;56017;48.680;8.998;2023-05-01T04:14:10;96470;;;10.8;75
68965;BME280;56017;48.680;8.998;2023-05-01T04:19:12;96470;;;10.8;74.5
68965;BME280;56017;48.680;8.998;2023-05-01T04:21:43;96470;;;10.7;75
68965;BME280;56017;48.680;8.998;2023-05-01T04:24:14;96470;;;10.7;75
68965;BME280;56017;48.680;8.998;2023-05-01T04:26:45;96470;;;10.8;75
68965;BME280;56017;48.680;8.998;2023-05-01T04:34:18;96470;;;10.9;75
68965;BME280;56017;48.680;8.998;2023-05-01T04:39:20;96470;;;11;74.5
68965;BME280;56017;48.680;8.998;2023-05-01T04:44:22;96470;;;10.9;75
68965;BME280;56017;48.680;8.998;2023-05-01T04:54:26;96470;;;10.5;75.5
68965;BME280;56017;48.680;8.998;2023-05-01T04:59:28;96480;;;10.4;75.5
68965;BME280;56017;48.680;8.998;2023-05-01T05:01:58;96480;;;10.4;75.5
68965;BME280;56017;48.680;8.998;2023-05-01T05:09:31;96480;;;10.1;76
68965;BME280;56017;48.680;8.998;2023-05-01T05:12:02;96480;;;10.2;76
68965;BME280;56017;48.680;8.998;2023-05-01T05:14:33;96490;;;10.2;76
68965;BME280;56017;48.680;8.998;2023-05-01T05:19:35;96490;;;10.2;76
68965;BME280;56017;48.680;8.998;2023-05-01T05:24:38;96490;;;10.2;76
68965;BME280;56017;48.680;8.998;2023-05-01T05:27:08;96490;;;10.2;76
68965;BME280;56017;48.680;8.998;2023-05-01T05:32:10;96490;;;10.3;76
68965;BME280;56017;48.680;8.998;2023-05-01T05:34:41;96490;;;10.3;76
68965;BME280;56017;48.680;8.998;2023-05-01T05:37:12;96490;;;10.4;76
68965;BME280;56017;48.680;8.998;2023-05-01T05:39:43;96480;;;10.4;76
68965;BME280;56017;48.680;8.998;2023-05-01T05:42:14;96490;;;10.3;76.5
68965;BME280;56017;48.680;8.998;2023-05-01T05:47:22;96480;;;10.5;76
68965;BME280;56017;48.680;8.998;2023-05-01T05:49:46;96480;;;10.6;75.5
68965;BME280;56017;48.680;8.998;2023-05-01T05:52:17;96490;;;10.5;75.5
68965;BME280;56017;48.680;8.998;2023-05-01T05:54:54;96480;;;10.6;76
68965;BME280;56017;48.680;8.998;2023-05-01T05:57:25;96480;;;10.7;75.5
68965;BME280;56017;48.680;8.998;2023-05-01T05:59:49;96480;;;10.8;75.5
68965;BME280;56017;48.680;8.998;2023-05-01T06:04:44;96480;;;11.1;75.5
68965;BME280;56017;48.680;8.998;2023-05-01T06:09:45;96480;;;10.8;76.5
68965;BME280;56017;48.680;8.998;2023-05-01T06:14:47;96480;;;11.1;76
68965;BME280;56017;48.680;8.998;2023-05-01T06:22:26;96480;;;11.2;75.5
68965;BME280;56017;48.680;8.998;2023-05-01T06:25:03;96480;;;11.3;76
68965;BME280;56017;48.680;8.998;2023-05-01T06:27:27;96480;;;11.2;76
68965;BME280;56017;48.680;8.998;2023-05-01T06:29:58;96480;;;11.1;76.5
68965;BME280;56017;48.680;8.998;2023-05-01T06:32:49;96480;;;11.2;76.5
68965;BME280;56017;48.680;8.998;2023-05-01T06:35:06;96480;;;11.3;76
68965;BME280;56017;48.680;8.998;2023-05-01T06:37:40;96490;;;11.3;76
68965;BME280;56017;48.680;8.998;2023-05-01T06:40:06;96490;;;11.2;76
68965;BME280;56017;48.680;8.998;2023-05-01T06:42:37;96490;;;11.3;76
68965;BME280;56017;48.680;8.998;2023-05-01T06:45:07;96490;;;11.3;76
68965;BME280;56017;48.680;8.998;2023-05-01T06:50:08;96500;;;11.1;76.5
68965;BME280;56017;48.680;8.998;2023-05-01T06:52:32;96490;;;11.1;76.5
68965;BME280;56017;48.680;8.998;2023-05-01T06:55:03;96500;;;11.3;76
68965;BME280;56017;48.680;8.998;2023-05-01T06:57:34;96500;;;11.3;76
68965;BME280;56017;48.680;8.998;2023-05-01T07:02:43;96510;;;11.5;76
68965;BME280;56017;48.680;8.998;2023-05-01T07:05:12;96510;;;11.6;76
68965;BME280;56017;48.680;8.998;2023-05-01T07:07:42;96500;;;11.6;76.5
68965;BME280;56017;48.680;8.998;2023-05-01T07:10:06;96500;;;11.7;76
68965;BME280;56017;48.680;8.998;2023-05-01T07:12:36;96510;;;11.8;76
68965;BME280;56017;48.680;8.998;2023-05-01T07:15:14;96500;;;11.6;76.5
68965;BME280;56017;48.680;8.998;2023-05-01T07:17:38;96500;;;11.5;76.5
68965;BME280;56017;48.680;8.998;2023-05-01T07:20:29;96500;;;11.5;76.5
68965;BME280;56017;48.680;8.998;2023-05-01T07:22:46;96500;;;11.6;76.5
68965;BME280;56017;48.680;8.998;2023-05-01T07:25:17;96490;;;11.8;76.5
68965;BME280;56017;48.680;8.998;2023-05-01T07:27:53;96500;;;11.9;77
68965;BME280;56017;48.680;8.998;2023-05-01T07:30:17;96490;;;12.1;76
68965;BME280;56017;48.680;8.998;2023-05-01T07:32:47;96500;;;12;76
68965;BME280;56017;48.680;8.998;2023-05-01T07:35:31;96490;;;12;76.5
68965;BME280;56017;48.680;8.998;2023-05-01T07:37:48;96490;;;12.1;76
68965;BME280;56017;48.680;8.998;2023-05-01T07:42:41;96490;;;12.1;76.5
68965;BME280;56017;48.680;8.998;2023-05-01T07:45:12;96490;;;12.4;76
68965;BME280;56017;48.680;8.998;2023-05-01T07:47:43;96490;;;12.5;76
68965;BME280;56017;48.680;8.998;2023-05-01T07:50:14;96490;;;12.7;75.5
68965;BME280;56017;48.680;8.998;2023-05-01T07:52:45;96490;;;12.6;76.5
68965;BME280;56017;48.680;8.998;2023-05-01T07:55:16;96480;;;12.8;76
68965;BME280;56017;48.680;8.998;2023-05-01T07:58:06;96490;;;12.9;75.5
68965;BME280;56017;48.680;8.998;2023-05-01T08:00:30;96490;;;13;76
68965;BME280;56017;48.680;8.998;2023-05-01T08:03:06;96490;;;12.9;76.5
68965;BME280;56017;48.680;8.998;2023-05-01T08:05:23;96490;;;13.1;76
68965;BME280;56017;48.680;8.998;2023-05-01T08:07:54;96490;;;13.4;75.5
68965;BME280;56017;48.680;8.998;2023-05-01T08:10:24;96490;;;13.6;75
68965;BME280;56017;48.680;8.998;2023-05-01T08:12:54;96490;;;13.6;75.5
68965;BME280;56017;48.680;8.998;2023-05-01T08:15:24;96490;;;13.7;75
68965;BME280;56017;48.680;8.998;2023-05-01T08:17:48;96480;;;13.8;75.5
68965;BME280;56017;48.680;8.998;2023-05-01T08:20:19;96490;;;13.8;75
68965;BME280;56017;48.680;8.998;2023-05-01T08:22:50;96490;;;13.7;75
68965;BME280;56017;48.680;8.998;2023-05-01T08:25:21;96480;;;13.7;75
68965;BME280;56017;48.680;8.998;2023-05-01T08:27:52;96480;;;14;75
68965;BME280;56017;48.680;8.998;2023-05-01T08:30:29;96480;;;14.3;75
68965;BME280;56017;48.680;8.998;2023-05-01T08:32:59;96480;;;14.4;75
68965;BME280;56017;48.680;8.998;2023-05-01T08:37:53;96470;;;14.7;74.5
68965;BME280;56017;48.680;8.998;2023-05-01T08:40:24;96470;;;14.8;74.5
68965;BME280;56017;48.680;8.998;2023-05-01T08:42:55;96470;;;14.8;74.5
68965;BME280;56017;48.680;8.998;2023-05-01T08:45:34;96470;;;14.9;74.5
68965;BME280;56017;48.680;8.998;2023-05-01T08:48:04;96470;;;14.5;75.5
68965;BME280;56017;48.680;8.998;2023-05-01T08:50:28;96470;;;14.3;76
68965;BME280;56017;48.680;8.998;2023-05-01T08:55:36;96470;;;14.7;75
68965;BME280;56017;48.680;8.998;2023-05-01T08:58:13;96470;;;14.9;75
68965;BME280;56017;48.680;8.998;2023-05-01T09:00:36;96480;;;15.1;74.5
68965;BME280;56017;48.680;8.998;2023-05-01T09:05:36;96470;;;15.4;74.5
68965;BME280;56017;48.680;8.998;2023-05-01T09:08:01;96470;;;15.4;74.5
68965;BME280;56017;48.680;8.998;2023-05-01T09:10:32;96470;;;15.5;74.5
68965;BME280;56017;48.680;8.998;2023-05-01T09:13:03;96470;;;15.7;74.5
68965;BME280;56017;48.680;8.998;2023-05-01T09:15:34;96470;;;15.7;75
68965;BME280;56017;48.680;8.998;2023-05-01T09:18:05;96470;;;15.6;75.5
68965;BME280;56017;48.680;8.998;2023-05-01T09:20:41;96480;;;15.7;75.5
68965;BME280;56017;48.680;8.998;2023-05-01T09:23:18;96470;;;15.5;75.5
68965;BME280;56017;48.680;8.998;2023-05-01T09:25:42;96470;;;15.6;76
68965;BME280;56017;48.680;8.998;2023-05-01T09:30:37;96470;;;16.2;74.5
68965;BME280;56017;48.680;8.998;2023-05-01T09:33:08;96470;;;16.2;74.5
68965;BME280;56017;48.680;8.998;2023-05-01T09:38:09;96470;;;16;75
68965;BME280;56017;48.680;8.998;2023-05-01T09:40:40;96470;;;16.1;74.5
68965;BME280;56017;48.680;8.998;2023-05-01T09:45:58;96470;;;16.4;75
68965;BME280;56017;48.680;8.998;2023-05-01T09:48:18;96470;;;16.7;74
68965;BME280;56017;48.680;8.998;2023-05-01T09:53:12;96470;;;17.1;74.5
68965;BME280;56017;48.680;8.998;2023-05-01T09:55:43;96470;;;17.1;74.5
68965;BME280;56017;48.680;8.998;2023-05-01T09:58:29;96470;;;17.2;74
68965;BME280;56017;48.680;8.998;2023-05-01T10:00:46;96470;;;17.2;73.5
68965;BME280;56017;48.680;8.998;2023-05-01T10:03:16;96470;;;17.1;73.5
68965;BME280;56017;48.680;8.998;2023-05-01T10:05:53;96470;;;17;74
68965;BME280;56017;48.680;8.998;2023-05-01T10:08:46;96470;;;17.1;74
68965;BME280;56017;48.680;8.998;2023-05-01T10:11:01;96470;;;17.1;74.5
68965;BME280;56017;48.680;8.998;2023-05-01T10:13:30;96470;;;17;75
68965;BME280;56017;48.680;8.998;2023-05-01T10:15:53;96470;;;17;75
68965;BME280;56017;48.680;8.998;2023-05-01T10:18:30;96460;;;17.2;74.5
68965;BME280;56017;48.680;8.998;2023-05-01T10:20:54;96470;;;17;75
68965;BME280;56017;48.680;8.998;2023-05-01T10:23:30;96460;;;16.8;75
68965;BME280;56017;48.680;8.998;2023-05-01T10:25:55;96460;;;16.8;74.5
68965;BME280;56017;48.680;8.998;2023-05-01T10:28:19;96470;;;17;74.5
68965;BME280;56017;48.680;8.998;2023-05-01T10:30:49;96460;;;17.2;74.5
68965;BME280;56017;48.680;8.998;2023-05-01T10:33:20;96460;;;17.3;74
68965;BME280;56017;48.680;8.998;2023-05-01T10:35:53;96470;;;17;74.5
68965;BME280;56017;48.680;8.998;2023-05-01T10:38:24;96470;;;16.9;75
68965;BME280;56017;48.680;8.998;2023-05-01T10:40:53;96470;;;17.1;74.5
68965;BME280;56017;48.680;8.998;2023-05-01T10:43:25;96470;;;17.2;74.5
68965;BME280;56017;48.680;8.998;2023-05-01T10:46:27;96470;;;17.1;74
68965;BME280;56017;48.680;8.998;2023-05-01T10:48:51;96460;;;17;74.5
68965;BME280;56017;48.680;8.998;2023-05-01T10:51:12;96470;;;16.9;74.5
68965;BME280;56017;48.680;8.998;2023-05-01T10:53:28;96460;;;16.5;75
68965;BME280;56017;48.680;8.998;2023-05-01T10:55:59;96460;;;16.3;75.5
68965;BME280;56017;48.680;8.998;2023-05-01T11:02:09;96460;;;16.3;75
68965;BME280;56017;48.680;8.998;2023-05-01T11:03:33;96460;;;16.2;75.5
68965;BME280;56017;48.680;8.998;2023-05-01T11:06:03;96460;;;16.2;75.5
68965;BME280;56017;48.680;8.998;2023-05-01T11:14:07;96450;;;16.2;75.5
68965;BME280;56017;48.680;8.998;2023-05-01T11:17:10;96450;;;16.2;75.5
68965;BME280;56017;48.680;8.998;2023-05-01T11:18:45;96450;;;16.2;75.5
68965;BME280;56017;48.680;8.998;2023-05-01T11:21:09;96450;;;16.1;75.5
68965;BME280;56017;48.680;8.998;2023-05-01T11:23:44;96450;;;16;75.5
68965;BME280;56017;48.680;8.998;2023-05-01T11:26:11;96450;;;15.8;75.5
68965;BME280;56017;48.680;8.998;2023-05-01T11:28:41;96440;;;15.8;75.5
68965;BME280;56017;48.680;8.998;2023-05-01T11:31:16;96450;;;15.8;75.5
68965;BME280;56017;48.680;8.998;2023-05-01T11:36:15;96450;;;15.7;75.5
68965;BME280;56017;48.680;8.998;2023-05-01T11:38:49;96450;;;15.5;76
68965;BME280;56017;48.680;8.998;2023-05-01T11:41:18;96450;;;15.6;76
68965;BME280;56017;48.680;8.998;2023-05-01T11:43:48;96450;;;15.7;76
68965;BME280;56017;48.680;8.998;2023-05-01T11:46:26;96450;;;15.8;75.5
68965;BME280;56017;48.680;8.998;2023-05-01T11:48:49;96450;;;16;75.5
68965;BME280;56017;48.680;8.998;2023-05-01T11:51:22;96450;;;16.4;75
68965;BME280;56017;48.680;8.998;2023-05-01T11:53:59;96450;;;16.7;75
68965;BME280;56017;48.680;8.998;2023-05-01T11:56:22;96450;;;17;75
68965;BME280;56017;48.680;8.998;2023-05-01T11:58:54;96440;;;17.2;74.5
68965;BME280;56017;48.680;8.998;2023-05-01T12:01:32;96440;;;17.1;74.5
68965;BME280;56017;48.680;8.998;2023-05-01T12:03:55;96440;;;17;74
68965;BME280;56017;48.680;8.998;2023-05-01T12:06:42;96440;;;16.8;74.5
68965;BME280;56017;48.680;8.998;2023-05-01T12:08:57;96430;;;16.7;74.5
68965;BME280;56017;48.680;8.998;2023-05-01T12:11:34;96430;;;16.7;74.5
68965;BME280;56017;48.680;8.998;2023-05-01T12:13:59;96430;;;16.7;75
68965;BME280;56017;48.680;8.998;2023-05-01T12:16:30;96430;;;16.5;75.5
68965;BME280;56017;48.680;8.998;2023-05-01T12:19:08;96430;;;16.3;76
68965;BME280;56017;48.680;8.998;2023-05-01T12:21:32;96430;;;16.2;76
68965;BME280;56017;48.680;8.998;2023-05-01T12:24:10;96430;;;16.2;76
68965;BME280;56017;48.680;8.998;2023-05-01T12:26:34;96430;;;16.2;76
68965;BME280;56017;48.680;8.998;2023-05-01T12:29:05;96440;;;16.1;76
68965;BME280;56017;48.680;8.998;2023-05-01T12:31:46;96430;;;16.1;76.5
68965;BME280;56017;48.680;8.998;2023-05-01T12:34:13;96430;;;16.2;76.5
68965;BME280;56017;48.680;8.998;2023-05-01T12:36:38;96440;;;16.2;76
68965;BME280;56017;48.680;8.998;2023-05-01T12:39:09;96440;;;16.2;76
68965;BME280;56017;48.680;8.998;2023-05-01T12:41:42;96440;;;16.1;76
68965;BME280;56017;48.680;8.998;2023-05-01T12:44:18;96440;;;16;76
68965;BME280;56017;48.680;8.998;2023-05-01T12:46:52;96440;;;15.7;76
68965;BME280;56017;48.680;8.998;2023-05-01T12:54:22;96450;;;13.6;78.5
68965;BME280;56017;48.680;8.998;2023-05-01T12:56:45;96460;;;13.6;78
68965;BME280;56017;48.680;8.998;2023-05-01T12:59:24;96460;;;13.4;78
68965;BME280;56017;48.680;8.998;2023-05-01T13:01:48;96460;;;13.4;78
68965;BME280;56017;48.680;8.998;2023-05-01T13:06:49;96460;;;13.3;78
68965;BME280;56017;48.680;8.998;2023-05-01T13:09:28;96450;;;13.4;77.5
68965;BME280;56017;48.680;8.998;2023-05-01T13:11:55;96460;;;13.5;77.5
68965;BME280;56017;48.680;8.998;2023-05-01T13:16:53;96450;;;13.5;77
68965;BME280;56017;48.680;8.998;2023-05-01T13:19:31;96460;;;13.6;77
68965;BME280;56017;48.680;8.998;2023-05-01T13:21:55;96460;;;13.4;77
68965;BME280;56017;48.680;8.998;2023-05-01T13:26:57;96470;;;13.1;78
68965;BME280;56017;48.680;8.998;2023-05-01T13:29:35;96460;;;13.3;78
68965;BME280;56017;48.680;8.998;2023-05-01T13:34:40;96450;;;13.7;77
68965;BME280;56017;48.680;8.998;2023-05-01T13:39:40;96440;;;13.8;77
68965;BME280;56017;48.680;8.998;2023-05-01T13:47:05;96450;;;14.7;76
68965;BME280;56017;48.680;8.998;2023-05-01T13:52:09;96430;;;15.1;76
68965;BME280;56017;48.680;8.998;2023-05-01T13:57:08;96430;;;16.7;75
68965;BME280;56017;48.680;8.998;2023-05-01T13:59:46;96440;;;17.8;74.5
68965;BME280;56017;48.680;8.998;2023-05-01T14:02:26;96440;;;18.7;73.5
68965;BME280;56017;48.680;8.998;2023-05-01T14:04:47;96430;;;19.2;72.5
68965;BME280;56017;48.680;8.998;2023-05-01T14:09:53;96420;;;19.9;70
68965;BME280;56017;48.680;8.998;2023-05-01T14:14:51;96420;;;19;70.5
68965;BME280;56017;48.680;8.998;2023-05-01T14:19:53;96420;;;17.3;74
68965;BME280;56017;48.680;8.998;2023-05-01T14:22:24;96420;;;16.9;74
68965;BME280;56017;48.680;8.998;2023-05-01T14:29:57;96430;;;15.5;76.5
68965;BME280;56017;48.680;8.998;2023-05-01T14:32:21;96440;;;15.5;76
68965;BME280;56017;48.680;8.998;2023-05-01T14:34:58;96450;;;15.3;76
68965;BME280;56017;48.680;8.998;2023-05-01T14:40:01;96470;;;15;76
68965;BME280;56017;48.680;8.998;2023-05-01T14:42:33;96470;;;14.8;76
68965;BME280;56017;48.680;8.998;2023-05-01T14:45:03;96480;;;14.5;76.5
68965;BME280;56017;48.680;8.998;2023-05-01T14:47:27;96480;;;14.1;77
68965;BME280;56017;48.680;8.998;2023-05-01T15:02:32;96480;;;11.1;80
68965;BME280;56017;48.680;8.998;2023-05-01T15:05:02;96500;;;11.2;80
68965;BME280;56017;48.680;8.998;2023-05-01T15:07:40;96510;;;11.4;79.5
68965;BME280;56017;48.680;8.998;2023-05-01T15:10:04;96500;;;11.6;79.5
68965;BME280;56017;48.680;8.998;2023-05-01T15:12:42;96490;;;11.7;79
68965;BME280;56017;48.680;8.998;2023-05-01T15:20:09;96470;;;11.9;78.5
68965;BME280;56017;48.680;8.998;2023-05-01T15:25:10;96470;;;12.1;78.5
68965;BME280;56017;48.680;8.998;2023-05-01T15:30:13;96470;;;12.7;77.5
68965;BME280;56017;48.680;8.998;2023-05-01T15:32:50;96470;;;13.3;77
68965;BME280;56017;48.680;8.998;2023-05-01T15:35:14;96470;;;13.9;76.5
68965;BME280;56017;48.680;8.998;2023-05-01T15:37:51;96470;;;14.3;75.5
68965;BME280;56017;48.680;8.998;2023-05-01T15:40:16;96470;;;14.7;75
68965;BME280;56017;48.680;8.998;2023-05-01T15:45:18;96470;;;15.3;74
68965;BME280;56017;48.680;8.998;2023-05-01T15:50:20;96470;;;15.5;73.5
68965;BME280;56017;48.680;8.998;2023-05-01T15:52:57;96470;;;15.5;74
68965;BME280;56017;48.680;8.998;2023-05-01T15:57:59;96480;;;15.7;74
68965;BME280;56017;48.680;8.998;2023-05-01T16:00:24;96480;;;15.5;74
68965;BME280;56017;48.680;8.998;2023-05-01T16:03:01;96480;;;15.3;74.5
68965;BME280;56017;48.680;8.998;2023-05-01T16:05:26;96480;;;15.3;74.5
68965;BME280;56017;48.680;8.998;2023-05-01T16:10:27;96500;;;15.5;74.5
68965;BME280;56017;48.680;8.998;2023-05-01T16:18:07;96500;;;14.9;76.5
68965;BME280;56017;48.680;8.998;2023-05-01T16:20:32;96510;;;14.9;76
68965;BME280;56017;48.680;8.998;2023-05-01T16:23:09;96510;;;14.7;76
68965;BME280;56017;48.680;8.998;2023-05-01T16:25:33;96520;;;14.5;76.5
68965;BME280;56017;48.680;8.998;2023-05-01T16:33:16;96530;;;14.2;76.5
68965;BME280;56017;48.680;8.998;2023-05-01T16:35:37;96520;;;14.2;76.5
68965;BME280;56017;48.680;8.998;2023-05-01T16:38:15;96520;;;14.1;76.5
68965;BME280;56017;48.680;8.998;2023-05-01T16:45:41;96530;;;13.8;77
68965;BME280;56017;48.680;8.998;2023-05-01T16:50:43;96520;;;13.9;77
68965;BME280;56017;48.680;8.998;2023-05-01T17:00:47;96520;;;13.6;77
68965;BME280;56017;48.680;8.998;2023-05-01T17:03:24;96530;;;13.6;77
68965;BME280;56017;48.680;8.998;2023-05-01T17:05:49;96520;;;13.6;77
68965;BME280;56017;48.680;8.998;2023-05-01T17:08:27;96510;;;13.6;76.5
68965;BME280;56017;48.680;8.998;2023-05-01T17:10:51;96510;;;13.7;77
68965;BME280;56017;48.680;8.998;2023-05-01T17:13:29;96510;;;14;76.5
68965;BME280;56017;48.680;8.998;2023-05-01T17:15:53;96520;;;14;77
68965;BME280;56017;48.680;8.998;2023-05-01T17:18:30;96520;;;14.2;76.5
68965;BME280;56017;48.680;8.998;2023-05-01T17:20:55;96520;;;14.2;76.5
68965;BME280;56017;48.680;8.998;2023-05-01T17:23:32;96520;;;14.3;76.5
68965;BME280;56017;48.680;8.998;2023-05-01T17:26:03;96520;;;14.5;76
68965;BME280;56017;48.680;8.998;2023-05-01T17:28:34;96530;;;14.5;75.5
68965;BME280;56017;48.680;8.998;2023-05-01T17:30:58;96530;;;14.3;75.5
68965;BME280;56017;48.680;8.998;2023-05-01T17:33:36;96530;;;14.1;76
68965;BME280;56017;48.680;8.998;2023-05-01T17:36:00;96540;;;13.9;76
68965;BME280;56017;48.680;8.998;2023-05-01T17:38:38;96540;;;13.8;76.5
68965;BME280;56017;48.680;8.998;2023-05-01T17:41:02;96550;;;13.7;76.5
68965;BME280;56017;48.680;8.998;2023-05-01T17:43:40;96540;;;13.5;76.5
68965;BME280;56017;48.680;8.998;2023-05-01T17:46:04;96550;;;13.4;77
68965;BME280;56017;48.680;8.998;2023-05-01T17:48:43;96550;;;13.3;77
68965;BME280;56017;48.680;8.998;2023-05-01T17:51:07;96550;;;13.2;77.5
68965;BME280;56017;48.680;8.998;2023-05-01T17:53:44;96560;;;13.1;77.5
68965;BME280;56017;48.680;8.998;2023-05-01T17:58:46;96560;;;13;77.5
68965;BME280;56017;48.680;8.998;2023-05-01T18:01:17;96570;;;13;77.5
68965;BME280;56017;48.680;8.998;2023-05-01T18:03:48;96570;;;13;78
68965;BME280;56017;48.680;8.998;2023-05-01T18:06:12;96570;;;13.1;78
68965;BME280;56017;48.680;8.998;2023-05-01T18:08:50;96570;;;13;78
68965;BME280;56017;48.680;8.998;2023-05-01T18:11:14;96580;;;13.1;78
68965;BME280;56017;48.680;8.998;2023-05-01T18:18:54;96600;;;12.9;78.5
68965;BME280;56017;48.680;8.998;2023-05-01T18:21:18;96600;;;12.9;78.5
68965;BME280;56017;48.680;8.998;2023-05-01T18:23:55;96610;;;12.8;78.5
68965;BME280;56017;48.680;8.998;2023-05-01T18:28:57;96610;;;12.7;78.5
68965;BME280;56017;48.680;8.998;2023-05-01T18:33:59;96610;;;12.7;78.5
68965;BME280;56017;48.680;8.998;2023-05-01T18:39:01;96610;;;12.6;78.5
68965;BME280;56017;48.680;8.998;2023-05-01T18:44:03;96610;;;12.6;78
68965;BME280;56017;48.680;8.998;2023-05-01T18:46:28;96610;;;12.5;78.5
68965;BME280;56017;48.680;8.998;2023-05-01T18:49:05;96610;;;12.4;78.5
68965;BME280;56017;48.680;8.998;2023-05-01T18:51:29;96610;;;12.2;79
68965;BME280;56017;48.680;8.998;2023-05-01T18:54:01;96610;;;12.2;79
68965;BME280;56017;48.680;8.998;2023-05-01T18:56:32;96610;;;12.1;79
68965;BME280;56017;48.680;8.998;2023-05-01T18:59:09;96610;;;12.1;78.5
68965;BME280;56017;48.680;8.998;2023-05-01T19:01:34;96610;;;12.1;78.5